Wallins, Kentucky
Current Conditions -  °F | °C
As of 4:35 PM on Sunday 23 Nov 2014 (Local Time) from KI35 Reporting Station
Overcast Overcast  
Wind Chill: 55°   Ceiling: 5000
Heat Index: 55°   Visibility: 10mi
Dew Point: 48°   Wind: 17mph
Humidity: 77%   Direction: 100°E
Pressure: 29.7"   Gusts: 30mph
Location:  36.8092°N, 83.4253°W
Report Text: KI35 232135Z AUTO 10015G26KT 070V130 10SM SCT031 BKN050 OVC120 13/09 A2970 RMK AO1
Loading
Personal Weather Stations






























Interactive Weather Map New forecast layout! Learn more

10-Day Weather Forecast

Advertisements
Track Severe Weather on mobile